sensor_id;sensor_type;location;lat;lon;timestamp;P1;durP1;ratioP1;P2;durP2;ratioP2
22250;SDS011;59348;52.158;5.588;2023-02-10T00:02:14;37.20;;;21.15;;
22250;SDS011;59348;52.158;5.588;2023-02-10T00:04:42;39.88;;;22.25;;
22250;SDS011;59348;52.158;5.588;2023-02-10T00:07:09;33.63;;;20.90;;
22250;SDS011;59348;52.158;5.588;2023-02-10T00:09:36;38.15;;;20.67;;
22250;SDS011;59348;52.158;5.588;2023-02-10T00:12:04;38.15;;;21.15;;
22250;SDS011;59348;52.158;5.588;2023-02-10T00:14:34;34.72;;;20.80;;
22250;SDS011;59348;52.158;5.588;2023-02-10T00:17:02;35.33;;;20.13;;
22250;SDS011;59348;52.158;5.588;2023-02-10T00:19:29;29.88;;;18.67;;
22250;SDS011;59348;52.158;5.588;2023-02-10T00:21:58;34.13;;;19.10;;
22250;SDS011;59348;52.158;5.588;2023-02-10T00:24:25;36.35;;;19.50;;
22250;SDS011;59348;52.158;5.588;2023-02-10T00:26:53;32.55;;;19.02;;
22250;SDS011;59348;52.158;5.588;2023-02-10T00:29:20;32.40;;;19.17;;
22250;SDS011;59348;52.158;5.588;2023-02-10T00:31:49;34.65;;;20.05;;
22250;SDS011;59348;52.158;5.588;2023-02-10T00:34:17;40.90;;;20.77;;
22250;SDS011;59348;52.158;5.588;2023-02-10T00:36:45;43.25;;;21.77;;
22250;SDS011;59348;52.158;5.588;2023-02-10T00:39:12;38.80;;;20.70;;
22250;SDS011;59348;52.158;5.588;2023-02-10T00:41:40;37.75;;;20.30;;
22250;SDS011;59348;52.158;5.588;2023-02-10T00:44:07;38.20;;;20.60;;
22250;SDS011;59348;52.158;5.588;2023-02-10T00:46:35;33.42;;;19.83;;
22250;SDS011;59348;52.158;5.588;2023-02-10T00:49:04;36.28;;;20.25;;
22250;SDS011;59348;52.158;5.588;2023-02-10T00:51:31;34.72;;;20.48;;
22250;SDS011;59348;52.158;5.588;2023-02-10T00:53:58;33.97;;;20.35;;
22250;SDS011;59348;52.158;5.588;2023-02-10T00:56:25;44.35;;;20.65;;
22250;SDS011;59348;52.158;5.588;2023-02-10T00:58:53;38.17;;;20.42;;
22250;SDS011;59348;52.158;5.588;2023-02-10T01:01:20;34.85;;;18.90;;
22250;SDS011;59348;52.158;5.588;2023-02-10T01:03:47;32.47;;;19.20;;
22250;SDS011;59348;52.158;5.588;2023-02-10T01:06:16;33.22;;;19.70;;
22250;SDS011;59348;52.158;5.588;2023-02-10T01:08:43;39.13;;;19.45;;
22250;SDS011;59348;52.158;5.588;2023-02-10T01:11:11;35.67;;;20.13;;
22250;SDS011;59348;52.158;5.588;2023-02-10T01:13:39;33.42;;;19.77;;
22250;SDS011;59348;52.158;5.588;2023-02-10T01:16:07;35.53;;;19.05;;
22250;SDS011;59348;52.158;5.588;2023-02-10T01:18:35;38.65;;;18.45;;
22250;SDS011;59348;52.158;5.588;2023-02-10T01:21:05;30.33;;;17.88;;
22250;SDS011;59348;52.158;5.588;2023-02-10T01:23:34;34.90;;;18.05;;
22250;SDS011;59348;52.158;5.588;2023-02-10T01:26:02;33.20;;;16.85;;
22250;SDS011;59348;52.158;5.588;2023-02-10T01:28:29;32.65;;;17.50;;
22250;SDS011;59348;52.158;5.588;2023-02-10T01:30:56;32.35;;;16.88;;
22250;SDS011;59348;52.158;5.588;2023-02-10T01:33:23;31.63;;;16.67;;
22250;SDS011;59348;52.158;5.588;2023-02-10T01:35:51;28.92;;;17.30;;
22250;SDS011;59348;52.158;5.588;2023-02-10T01:38:18;34.05;;;18.55;;
22250;SDS011;59348;52.158;5.588;2023-02-10T01:40:48;35.45;;;18.05;;
22250;SDS011;59348;52.158;5.588;2023-02-10T01:43:15;29.92;;;18.08;;
22250;SDS011;59348;52.158;5.588;2023-02-10T01:45:43;32.85;;;19.08;;
22250;SDS011;59348;52.158;5.588;2023-02-10T01:48:11;32.70;;;18.92;;
22250;SDS011;59348;52.158;5.588;2023-02-10T01:50:40;30.83;;;18.92;;
22250;SDS011;59348;52.158;5.588;2023-02-10T01:53:08;30.52;;;18.15;;
22250;SDS011;59348;52.158;5.588;2023-02-10T01:55:36;31.90;;;18.73;;
22250;SDS011;59348;52.158;5.588;2023-02-10T01:58:07;29.65;;;17.83;;
22250;SDS011;59348;52.158;5.588;2023-02-10T02:00:35;34.80;;;18.23;;
22250;SDS011;59348;52.158;5.588;2023-02-10T02:03:03;28.70;;;17.73;;
22250;SDS011;59348;52.158;5.588;2023-02-10T02:05:32;34.08;;;17.80;;
22250;SDS011;59348;52.158;5.588;2023-02-10T02:08:01;33.58;;;17.25;;
22250;SDS011;59348;52.158;5.588;2023-02-10T02:10:31;28.60;;;16.67;;
22250;SDS011;59348;52.158;5.588;2023-02-10T02:13:02;29.48;;;16.73;;
22250;SDS011;59348;52.158;5.588;2023-02-10T02:15:33;31.75;;;17.75;;
22250;SDS011;59348;52.158;5.588;2023-02-10T02:18:06;25.70;;;16.02;;
22250;SDS011;59348;52.158;5.588;2023-02-10T02:20:40;30.52;;;16.38;;
22250;SDS011;59348;52.158;5.588;2023-02-10T02:23:14;30.92;;;16.23;;
22250;SDS011;59348;52.158;5.588;2023-02-10T02:25:54;36.28;;;16.40;;
22250;SDS011;59348;52.158;5.588;2023-02-10T02:28:24;29.00;;;17.08;;
22250;SDS011;59348;52.158;5.588;2023-02-10T02:33:40;31.05;;;17.38;;
22250;SDS011;59348;52.158;5.588;2023-02-10T02:36:11;30.88;;;16.73;;
22250;SDS011;59348;52.158;5.588;2023-02-10T02:38:40;30.30;;;17.20;;
22250;SDS011;59348;52.158;5.588;2023-02-10T02:41:07;29.15;;;17.30;;
22250;SDS011;59348;52.158;5.588;2023-02-10T02:43:35;30.05;;;17.02;;
22250;SDS011;59348;52.158;5.588;2023-02-10T02:46:04;32.83;;;18.02;;
22250;SDS011;59348;52.158;5.588;2023-02-10T02:48:41;30.02;;;16.73;;
22250;SDS011;59348;52.158;5.588;2023-02-10T02:51:13;27.60;;;16.58;;
22250;SDS011;59348;52.158;5.588;2023-02-10T02:53:45;28.55;;;16.80;;
22250;SDS011;59348;52.158;5.588;2023-02-10T02:56:16;30.20;;;16.88;;
22250;SDS011;59348;52.158;5.588;2023-02-10T02:58:50;30.98;;;17.17;;
22250;SDS011;59348;52.158;5.588;2023-02-10T03:01:20;33.22;;;17.27;;
22250;SDS011;59348;52.158;5.588;2023-02-10T03:03:51;30.05;;;17.63;;
22250;SDS011;59348;52.158;5.588;2023-02-10T03:06:18;33.67;;;17.88;;
22250;SDS011;59348;52.158;5.588;2023-02-10T03:08:45;33.10;;;17.88;;
22250;SDS011;59348;52.158;5.588;2023-02-10T03:11:13;37.30;;;19.35;;
22250;SDS011;59348;52.158;5.588;2023-02-10T03:13:40;33.22;;;19.42;;
22250;SDS011;59348;52.158;5.588;2023-02-10T03:16:08;29.90;;;17.85;;
22250;SDS011;59348;52.158;5.588;2023-02-10T03:18:35;35.05;;;18.52;;
22250;SDS011;59348;52.158;5.588;2023-02-10T03:21:04;35.03;;;19.90;;
22250;SDS011;59348;52.158;5.588;2023-02-10T03:23:31;36.38;;;20.45;;
22250;SDS011;59348;52.158;5.588;2023-02-10T03:25:58;40.25;;;20.73;;
22250;SDS011;59348;52.158;5.588;2023-02-10T03:28:26;36.70;;;21.42;;
22250;SDS011;59348;52.158;5.588;2023-02-10T03:30:53;36.72;;;20.10;;
22250;SDS011;59348;52.158;5.588;2023-02-10T03:33:21;36.15;;;20.40;;
22250;SDS011;59348;52.158;5.588;2023-02-10T03:35:48;36.15;;;20.83;;
22250;SDS011;59348;52.158;5.588;2023-02-10T03:38:17;38.25;;;20.70;;
22250;SDS011;59348;52.158;5.588;2023-02-10T03:40:47;41.97;;;21.90;;
22250;SDS011;59348;52.158;5.588;2023-02-10T03:43:15;39.38;;;21.50;;
22250;SDS011;59348;52.158;5.588;2023-02-10T03:45:42;46.80;;;22.60;;
22250;SDS011;59348;52.158;5.588;2023-02-10T03:48:10;40.15;;;22.17;;
22250;SDS011;59348;52.158;5.588;2023-02-10T03:50:37;42.25;;;22.58;;
22250;SDS011;59348;52.158;5.588;2023-02-10T03:53:04;45.83;;;22.00;;
22250;SDS011;59348;52.158;5.588;2023-02-10T03:55:33;43.75;;;23.52;;
22250;SDS011;59348;52.158;5.588;2023-02-10T03:58:00;40.97;;;23.60;;
22250;SDS011;59348;52.158;5.588;2023-02-10T04:00:28;42.72;;;23.92;;
22250;SDS011;59348;52.158;5.588;2023-02-10T04:02:55;42.08;;;23.95;;
22250;SDS011;59348;52.158;5.588;2023-02-10T04:05:22;40.78;;;25.25;;
22250;SDS011;59348;52.158;5.588;2023-02-10T04:07:50;42.50;;;25.27;;
22250;SDS011;59348;52.158;5.588;2023-02-10T04:10:17;44.92;;;25.23;;
22250;SDS011;59348;52.158;5.588;2023-02-10T04:12:46;43.00;;;25.17;;
22250;SDS011;59348;52.158;5.588;2023-02-10T04:15:14;50.60;;;26.90;;
22250;SDS011;59348;52.158;5.588;2023-02-10T04:17:41;42.40;;;26.58;;
22250;SDS011;59348;52.158;5.588;2023-02-10T04:20:09;49.72;;;27.30;;
22250;SDS011;59348;52.158;5.588;2023-02-10T04:22:36;50.60;;;27.15;;
22250;SDS011;59348;52.158;5.588;2023-02-10T04:25:04;51.10;;;26.75;;
22250;SDS011;59348;52.158;5.588;2023-02-10T04:27:31;46.88;;;25.20;;
22250;SDS011;59348;52.158;5.588;2023-02-10T04:30:00;53.10;;;27.48;;
22250;SDS011;59348;52.158;5.588;2023-02-10T04:32:27;51.35;;;27.38;;
22250;SDS011;59348;52.158;5.588;2023-02-10T04:34:55;53.58;;;28.27;;
22250;SDS011;59348;52.158;5.588;2023-02-10T04:37:22;52.70;;;28.38;;
22250;SDS011;59348;52.158;5.588;2023-02-10T04:39:49;52.33;;;28.52;;
22250;SDS011;59348;52.158;5.588;2023-02-10T04:42:16;47.58;;;28.38;;
22250;SDS011;59348;52.158;5.588;2023-02-10T04:44:44;47.38;;;28.00;;
22250;SDS011;59348;52.158;5.588;2023-02-10T04:47:12;56.38;;;28.30;;
22250;SDS011;59348;52.158;5.588;2023-02-10T04:49:40;53.85;;;28.73;;
22250;SDS011;59348;52.158;5.588;2023-02-10T04:52:07;54.45;;;28.63;;
22250;SDS011;59348;52.158;5.588;2023-02-10T04:54:34;51.50;;;28.27;;
22250;SDS011;59348;52.158;5.588;2023-02-10T04:57:01;56.90;;;27.88;;
22250;SDS011;59348;52.158;5.588;2023-02-10T04:59:29;49.28;;;28.45;;
22250;SDS011;59348;52.158;5.588;2023-02-10T05:01:56;55.47;;;28.25;;
22250;SDS011;59348;52.158;5.588;2023-02-10T05:04:24;52.00;;;27.95;;
22250;SDS011;59348;52.158;5.588;2023-02-10T05:06:52;53.83;;;28.10;;
22250;SDS011;59348;52.158;5.588;2023-02-10T05:09:23;51.67;;;28.35;;
22250;SDS011;59348;52.158;5.588;2023-02-10T05:11:51;50.63;;;28.45;;
22250;SDS011;59348;52.158;5.588;2023-02-10T05:14:19;53.45;;;29.88;;
22250;SDS011;59348;52.158;5.588;2023-02-10T05:16:46;56.28;;;29.55;;
22250;SDS011;59348;52.158;5.588;2023-02-10T05:19:13;50.53;;;28.60;;
22250;SDS011;59348;52.158;5.588;2023-02-10T05:43:08;54.53;;;29.70;;
22250;SDS011;59348;52.158;5.588;2023-02-10T05:45:35;61.97;;;31.45;;
22250;SDS011;59348;52.158;5.588;2023-02-10T05:48:02;55.67;;;31.17;;
22250;SDS011;59348;52.158;5.588;2023-02-10T05:50:30;58.17;;;30.35;;
22250;SDS011;59348;52.158;5.588;2023-02-10T05:52:57;53.15;;;30.67;;
22250;SDS011;59348;52.158;5.588;2023-02-10T05:55:25;57.63;;;30.17;;
22250;SDS011;59348;52.158;5.588;2023-02-10T05:57:52;61.15;;;31.08;;
22250;SDS011;59348;52.158;5.588;2023-02-10T06:00:20;58.83;;;32.15;;
22250;SDS011;59348;52.158;5.588;2023-02-10T06:02:48;64.85;;;31.83;;
22250;SDS011;59348;52.158;5.588;2023-02-10T06:05:15;57.40;;;32.45;;
22250;SDS011;59348;52.158;5.588;2023-02-10T06:07:42;61.88;;;33.30;;
22250;SDS011;59348;52.158;5.588;2023-02-10T06:10:10;59.45;;;32.08;;
22250;SDS011;59348;52.158;5.588;2023-02-10T06:12:37;61.13;;;32.47;;
22250;SDS011;59348;52.158;5.588;2023-02-10T06:15:04;57.72;;;32.67;;
22250;SDS011;59348;52.158;5.588;2023-02-10T06:17:33;58.22;;;32.58;;
22250;SDS011;59348;52.158;5.588;2023-02-10T06:20:00;61.80;;;33.67;;
22250;SDS011;59348;52.158;5.588;2023-02-10T06:22:28;61.08;;;32.60;;
22250;SDS011;59348;52.158;5.588;2023-02-10T06:24:55;63.33;;;33.67;;
22250;SDS011;59348;52.158;5.588;2023-02-10T06:27:23;63.60;;;32.78;;
22250;SDS011;59348;52.158;5.588;2023-02-10T06:29:50;62.70;;;33.28;;
22250;SDS011;59348;52.158;5.588;2023-02-10T06:32:17;63.90;;;33.58;;
22250;SDS011;59348;52.158;5.588;2023-02-10T06:34:46;60.30;;;32.42;;
22250;SDS011;59348;52.158;5.588;2023-02-10T06:37:13;57.08;;;30.67;;
22250;SDS011;59348;52.158;5.588;2023-02-10T06:39:40;57.20;;;32.40;;
22250;SDS011;59348;52.158;5.588;2023-02-10T06:42:07;58.03;;;31.48;;
22250;SDS011;59348;52.158;5.588;2023-02-10T06:44:35;59.97;;;32.03;;
22250;SDS011;59348;52.158;5.588;2023-02-10T06:47:02;57.13;;;31.83;;
22250;SDS011;59348;52.158;5.588;2023-02-10T06:49:29;61.15;;;31.95;;
22250;SDS011;59348;52.158;5.588;2023-02-10T06:51:58;62.72;;;32.25;;
22250;SDS011;59348;52.158;5.588;2023-02-10T06:54:25;62.05;;;33.30;;
22250;SDS011;59348;52.158;5.588;2023-02-10T06:56:52;61.53;;;33.90;;
22250;SDS011;59348;52.158;5.588;2023-02-10T06:59:20;64.20;;;35.22;;
22250;SDS011;59348;52.158;5.588;2023-02-10T07:01:47;62.50;;;32.50;;
22250;SDS011;59348;52.158;5.588;2023-02-10T07:04:14;66.45;;;32.45;;
22250;SDS011;59348;52.158;5.588;2023-02-10T07:06:42;58.97;;;31.88;;
22250;SDS011;59348;52.158;5.588;2023-02-10T07:09:10;58.63;;;31.95;;
22250;SDS011;59348;52.158;5.588;2023-02-10T07:11:37;63.35;;;32.33;;
22250;SDS011;59348;52.158;5.588;2023-02-10T07:14:05;56.83;;;32.90;;
22250;SDS011;59348;52.158;5.588;2023-02-10T07:16:32;60.72;;;31.60;;
22250;SDS011;59348;52.158;5.588;2023-02-10T07:18:59;63.92;;;31.67;;
22250;SDS011;59348;52.158;5.588;2023-02-10T07:21:27;60.60;;;30.58;;
22250;SDS011;59348;52.158;5.588;2023-02-10T07:23:55;62.38;;;30.90;;
22250;SDS011;59348;52.158;5.588;2023-02-10T07:26:23;58.95;;;29.25;;
22250;SDS011;59348;52.158;5.588;2023-02-10T07:28:50;59.35;;;29.85;;
22250;SDS011;59348;52.158;5.588;2023-02-10T07:31:18;55.78;;;29.05;;
22250;SDS011;59348;52.158;5.588;2023-02-10T07:33:45;62.13;;;30.10;;
22250;SDS011;59348;52.158;5.588;2023-02-10T07:36:12;60.05;;;28.77;;
22250;SDS011;59348;52.158;5.588;2023-02-10T07:38:40;58.88;;;30.42;;
22250;SDS011;59348;52.158;5.588;2023-02-10T07:41:07;56.67;;;29.90;;
22250;SDS011;59348;52.158;5.588;2023-02-10T07:43:36;59.92;;;29.55;;
22250;SDS011;59348;52.158;5.588;2023-02-10T07:46:03;63.92;;;30.48;;
22250;SDS011;59348;52.158;5.588;2023-02-10T07:48:31;59.78;;;29.48;;
22250;SDS011;59348;52.158;5.588;2023-02-10T07:50:58;57.08;;;29.50;;
22250;SDS011;59348;52.158;5.588;2023-02-10T07:53:25;52.78;;;28.77;;
22250;SDS011;59348;52.158;5.588;2023-02-10T07:55:53;57.50;;;29.65;;
22250;SDS011;59348;52.158;5.588;2023-02-10T07:58:20;54.13;;;27.77;;
22250;SDS011;59348;52.158;5.588;2023-02-10T08:00:48;50.75;;;26.80;;
22250;SDS011;59348;52.158;5.588;2023-02-10T08:03:16;48.38;;;26.38;;
22250;SDS011;59348;52.158;5.588;2023-02-10T08:05:44;45.85;;;26.05;;
22250;SDS011;59348;52.158;5.588;2023-02-10T08:08:12;42.17;;;24.77;;
22250;SDS011;59348;52.158;5.588;2023-02-10T08:10:40;42.83;;;24.42;;
22250;SDS011;59348;52.158;5.588;2023-02-10T08:13:07;41.38;;;24.23;;
22250;SDS011;59348;52.158;5.588;2023-02-10T08:15:35;44.88;;;24.67;;
22250;SDS011;59348;52.158;5.588;2023-02-10T08:18:03;45.72;;;24.38;;
22250;SDS011;59348;52.158;5.588;2023-02-10T08:20:30;41.05;;;23.52;;
22250;SDS011;59348;52.158;5.588;2023-02-10T08:22:58;46.65;;;23.48;;
22250;SDS011;59348;52.158;5.588;2023-02-10T08:25:25;40.78;;;24.58;;
22250;SDS011;59348;52.158;5.588;2023-02-10T08:27:53;40.53;;;23.33;;
22250;SDS011;59348;52.158;5.588;2023-02-10T08:30:20;40.92;;;22.95;;
22250;SDS011;59348;52.158;5.588;2023-02-10T08:32:47;42.25;;;23.13;;
22250;SDS011;59348;52.158;5.588;2023-02-10T08:35:16;47.05;;;25.10;;
22250;SDS011;59348;52.158;5.588;2023-02-10T08:37:43;41.05;;;24.75;;
22250;SDS011;59348;52.158;5.588;2023-02-10T08:40:11;40.88;;;25.75;;
22250;SDS011;59348;52.158;5.588;2023-02-10T08:42:38;45.10;;;25.80;;
22250;SDS011;59348;52.158;5.588;2023-02-10T08:45:05;42.55;;;24.90;;
22250;SDS011;59348;52.158;5.588;2023-02-10T08:47:33;45.70;;;24.90;;
22250;SDS011;59348;52.158;5.588;2023-02-10T08:50:00;44.13;;;26.55;;
22250;SDS011;59348;52.158;5.588;2023-02-10T08:52:29;42.22;;;25.52;;
22250;SDS011;59348;52.158;5.588;2023-02-10T08:54:56;44.75;;;25.73;;
22250;SDS011;59348;52.158;5.588;2023-02-10T08:57:24;44.92;;;26.85;;
22250;SDS011;59348;52.158;5.588;2023-02-10T08:59:52;47.80;;;27.02;;
22250;SDS011;59348;52.158;5.588;2023-02-10T09:02:19;51.97;;;27.85;;
22250;SDS011;59348;52.158;5.588;2023-02-10T09:04:46;44.47;;;26.63;;
22250;SDS011;59348;52.158;5.588;2023-02-10T09:07:13;47.28;;;26.55;;
22250;SDS011;59348;52.158;5.588;2023-02-10T09:09:42;48.55;;;26.98;;
22250;SDS011;59348;52.158;5.588;2023-02-10T09:12:10;48.63;;;26.75;;
22250;SDS011;59348;52.158;5.588;2023-02-10T09:14:37;46.08;;;26.92;;
22250;SDS011;59348;52.158;5.588;2023-02-10T09:17:05;46.63;;;26.77;;
22250;SDS011;59348;52.158;5.588;2023-02-10T09:19:33;48.72;;;27.17;;
22250;SDS011;59348;52.158;5.588;2023-02-10T09:22:00;46.53;;;25.92;;
22250;SDS011;59348;52.158;5.588;2023-02-10T09:24:28;50.92;;;27.92;;
22250;SDS011;59348;52.158;5.588;2023-02-10T09:26:56;51.90;;;27.42;;
22250;SDS011;59348;52.158;5.588;2023-02-10T09:29:24;50.28;;;28.92;;
22250;SDS011;59348;52.158;5.588;2023-02-10T09:31:51;48.35;;;28.50;;
22250;SDS011;59348;52.158;5.588;2023-02-10T09:34:18;48.85;;;26.45;;
22250;SDS011;59348;52.158;5.588;2023-02-10T09:36:46;48.92;;;27.73;;
22250;SDS011;59348;52.158;5.588;2023-02-10T09:39:13;45.33;;;26.42;;
22250;SDS011;59348;52.158;5.588;2023-02-10T09:41:42;49.40;;;26.88;;
22250;SDS011;59348;52.158;5.588;2023-02-10T09:44:15;44.72;;;25.67;;
22250;SDS011;59348;52.158;5.588;2023-02-10T09:46:47;44.30;;;25.73;;
22250;SDS011;59348;52.158;5.588;2023-02-10T09:49:22;48.00;;;25.50;;
22250;SDS011;59348;52.158;5.588;2023-02-10T09:51:55;47.40;;;24.95;;
22250;SDS011;59348;52.158;5.588;2023-02-10T09:54:25;42.80;;;24.45;;
22250;SDS011;59348;52.158;5.588;2023-02-10T09:56:56;46.65;;;25.55;;
22250;SDS011;59348;52.158;5.588;2023-02-10T09:59:25;53.13;;;25.65;;
22250;SDS011;59348;52.158;5.588;2023-02-10T10:01:53;45.95;;;25.45;;
22250;SDS011;59348;52.158;5.588;2023-02-10T10:04:22;48.13;;;26.83;;
22250;SDS011;59348;52.158;5.588;2023-02-10T10:06:50;44.63;;;25.92;;
22250;SDS011;59348;52.158;5.588;2023-02-10T10:09:22;43.88;;;24.55;;
22250;SDS011;59348;52.158;5.588;2023-02-10T10:11:51;45.10;;;25.08;;
22250;SDS011;59348;52.158;5.588;2023-02-10T10:14:19;39.75;;;23.85;;
22250;SDS011;59348;52.158;5.588;2023-02-10T10:16:52;46.15;;;24.50;;
22250;SDS011;59348;52.158;5.588;2023-02-10T10:19:25;44.65;;;24.33;;
22250;SDS011;59348;52.158;5.588;2023-02-10T10:21:56;41.50;;;23.30;;
22250;SDS011;59348;52.158;5.588;2023-02-10T10:24:32;37.65;;;22.15;;
22250;SDS011;59348;52.158;5.588;2023-02-10T10:27:04;36.30;;;22.17;;
22250;SDS011;59348;52.158;5.588;2023-02-10T10:29:37;36.85;;;21.83;;
22250;SDS011;59348;52.158;5.588;2023-02-10T10:32:11;39.25;;;22.13;;
22250;SDS011;59348;52.158;5.588;2023-02-10T10:34:41;36.78;;;21.70;;
22250;SDS011;59348;52.158;5.588;2023-02-10T10:37:11;38.92;;;22.27;;
22250;SDS011;59348;52.158;5.588;2023-02-10T10:39:40;42.15;;;22.02;;
22250;SDS011;59348;52.158;5.588;2023-02-10T10:42:10;40.35;;;21.38;;
22250;SDS011;59348;52.158;5.588;2023-02-10T10:44:39;42.35;;;21.80;;
22250;SDS011;59348;52.158;5.588;2023-02-10T10:47:10;39.10;;;21.55;;
22250;SDS011;59348;52.158;5.588;2023-02-10T10:49:39;38.88;;;21.33;;
22250;SDS011;59348;52.158;5.588;2023-02-10T10:52:15;41.78;;;21.55;;
22250;SDS011;59348;52.158;5.588;2023-02-10T10:54:46;39.70;;;20.42;;
22250;SDS011;59348;52.158;5.588;2023-02-10T10:57:13;34.13;;;19.92;;
22250;SDS011;59348;52.158;5.588;2023-02-10T10:59:44;34.22;;;20.13;;
22250;SDS011;59348;52.158;5.588;2023-02-10T11:02:15;39.75;;;20.83;;
22250;SDS011;59348;52.158;5.588;2023-02-10T11:04:42;36.15;;;21.17;;
22250;SDS011;59348;52.158;5.588;2023-02-10T11:07:11;36.80;;;20.42;;
22250;SDS011;59348;52.158;5.588;2023-02-10T11:09:40;37.40;;;20.50;;
22250;SDS011;59348;52.158;5.588;2023-02-10T11:12:14;36.33;;;19.92;;
22250;SDS011;59348;52.158;5.588;2023-02-10T11:14:43;33.90;;;19.42;;
22250;SDS011;59348;52.158;5.588;2023-02-10T11:17:18;33.53;;;19.67;;
22250;SDS011;59348;52.158;5.588;2023-02-10T11:19:52;35.97;;;20.75;;
22250;SDS011;59348;52.158;5.588;2023-02-10T11:22:20;38.08;;;20.13;;
22250;SDS011;59348;52.158;5.588;2023-02-10T11:24:49;35.80;;;20.67;;
22250;SDS011;59348;52.158;5.588;2023-02-10T11:27:16;40.45;;;20.42;;
22250;SDS011;59348;52.158;5.588;2023-02-10T11:29:46;36.03;;;20.15;;
22250;SDS011;59348;52.158;5.588;2023-02-10T11:32:17;36.13;;;20.27;;
22250;SDS011;59348;52.158;5.588;2023-02-10T11:34:46;36.83;;;19.70;;
22250;SDS011;59348;52.158;5.588;2023-02-10T11:37:19;37.25;;;20.10;;
22250;SDS011;59348;52.158;5.588;2023-02-10T11:39:48;39.63;;;20.50;;
22250;SDS011;59348;52.158;5.588;2023-02-10T11:42:16;34.55;;;19.50;;
22250;SDS011;59348;52.158;5.588;2023-02-10T11:44:51;36.35;;;20.70;;
22250;SDS011;59348;52.158;5.588;2023-02-10T11:47:19;41.50;;;20.05;;
22250;SDS011;59348;52.158;5.588;2023-02-10T11:49:48;32.97;;;18.65;;
22250;SDS011;59348;52.158;5.588;2023-02-10T11:52:16;35.08;;;18.70;;
22250;SDS011;59348;52.158;5.588;2023-02-10T11:54:44;33.08;;;18.35;;
22250;SDS011;59348;52.158;5.588;2023-02-10T11:57:16;29.70;;;16.92;;
22250;SDS011;59348;52.158;5.588;2023-02-10T12:00:01;31.15;;;17.60;;
22250;SDS011;59348;52.158;5.588;2023-02-10T12:02:33;31.48;;;16.45;;
22250;SDS011;59348;52.158;5.588;2023-02-10T12:05:09;31.83;;;15.38;;
22250;SDS011;59348;52.158;5.588;2023-02-10T12:07:41;26.75;;;14.20;;
22250;SDS011;59348;52.158;5.588;2023-02-10T12:10:13;27.10;;;14.65;;
22250;SDS011;59348;52.158;5.588;2023-02-10T12:12:47;26.80;;;14.10;;
22250;SDS011;59348;52.158;5.588;2023-02-10T12:15:22;25.88;;;14.88;;
22250;SDS011;59348;52.158;5.588;2023-02-10T12:17:56;32.25;;;14.52;;
22250;SDS011;59348;52.158;5.588;2023-02-10T12:20:32;27.25;;;13.90;;
22250;SDS011;59348;52.158;5.588;2023-02-10T12:23:09;29.05;;;14.05;;
22250;SDS011;59348;52.158;5.588;2023-02-10T12:25:39;29.48;;;13.95;;
22250;SDS011;59348;52.158;5.588;2023-02-10T12:28:13;24.90;;;14.15;;
22250;SDS011;59348;52.158;5.588;2023-02-10T12:30:44;24.52;;;13.18;;
22250;SDS011;59348;52.158;5.588;2023-02-10T12:33:19;28.92;;;14.05;;
22250;SDS011;59348;52.158;5.588;2023-02-10T12:35:55;26.88;;;13.45;;
22250;SDS011;59348;52.158;5.588;2023-02-10T12:38:29;25.27;;;13.43;;
22250;SDS011;59348;52.158;5.588;2023-02-10T12:41:03;27.33;;;13.00;;
22250;SDS011;59348;52.158;5.588;2023-02-10T12:43:41;25.92;;;13.25;;
22250;SDS011;59348;52.158;5.588;2023-02-10T12:46:12;26.00;;;12.77;;
22250;SDS011;59348;52.158;5.588;2023-02-10T12:48:43;30.10;;;13.00;;
22250;SDS011;59348;52.158;5.588;2023-02-10T12:51:17;27.65;;;12.02;;
22250;SDS011;59348;52.158;5.588;2023-02-10T12:53:49;26.45;;;13.20;;
22250;SDS011;59348;52.158;5.588;2023-02-10T12:56:19;24.25;;;11.90;;
22250;SDS011;59348;52.158;5.588;2023-02-10T12:58:50;21.67;;;11.93;;
22250;SDS011;59348;52.158;5.588;2023-02-10T13:01:19;22.65;;;11.15;;
22250;SDS011;59348;52.158;5.588;2023-02-10T13:03:49;26.05;;;12.30;;
22250;SDS011;59348;52.158;5.588;2023-02-10T13:06:20;23.48;;;11.93;;
22250;SDS011;59348;52.158;5.588;2023-02-10T13:08:51;26.35;;;12.07;;
22250;SDS011;59348;52.158;5.588;2023-02-10T13:11:22;27.17;;;12.48;;
22250;SDS011;59348;52.158;5.588;2023-02-10T13:13:52;23.30;;;12.95;;
22250;SDS011;59348;52.158;5.588;2023-02-10T13:16:21;29.83;;;13.32;;
22250;SDS011;59348;52.158;5.588;2023-02-10T13:18:50;27.35;;;12.63;;
22250;SDS011;59348;52.158;5.588;2023-02-10T13:21:22;27.10;;;13.43;;
22250;SDS011;59348;52.158;5.588;2023-02-10T13:23:52;28.98;;;13.98;;
22250;SDS011;59348;52.158;5.588;2023-02-10T13:26:24;29.58;;;14.30;;
22250;SDS011;59348;52.158;5.588;2023-02-10T13:28:57;28.75;;;14.25;;
22250;SDS011;59348;52.158;5.588;2023-02-10T13:31:31;35.53;;;15.27;;
22250;SDS011;59348;52.158;5.588;2023-02-10T13:34:04;30.92;;;14.88;;
22250;SDS011;59348;52.158;5.588;2023-02-10T13:36:41;30.77;;;15.45;;
22250;SDS011;59348;52.158;5.588;2023-02-10T13:39:15;31.88;;;15.90;;
22250;SDS011;59348;52.158;5.588;2023-02-10T13:41:46;31.70;;;15.98;;
22250;SDS011;59348;52.158;5.588;2023-02-10T13:44:18;31.88;;;15.40;;
22250;SDS011;59348;52.158;5.588;2023-02-10T13:46:48;26.48;;;14.95;;
22250;SDS011;59348;52.158;5.588;2023-02-10T13:49:17;28.55;;;14.57;;
22250;SDS011;59348;52.158;5.588;2023-02-10T13:51:46;28.80;;;14.75;;
22250;SDS011;59348;52.158;5.588;2023-02-10T13:54:23;34.47;;;15.80;;
22250;SDS011;59348;52.158;5.588;2023-02-10T13:56:52;34.50;;;16.33;;
22250;SDS011;59348;52.158;5.588;2023-02-10T13:59:24;33.40;;;15.82;;
22250;SDS011;59348;52.158;5.588;2023-02-10T14:02:01;34.42;;;15.65;;
22250;SDS011;59348;52.158;5.588;2023-02-10T14:04:36;33.00;;;15.70;;
22250;SDS011;59348;52.158;5.588;2023-02-10T14:07:14;30.83;;;16.63;;
22250;SDS011;59348;52.158;5.588;2023-02-10T14:09:41;37.47;;;15.98;;
22250;SDS011;59348;52.158;5.588;2023-02-10T14:14:51;32.03;;;17.23;;
22250;SDS011;59348;52.158;5.588;2023-02-10T14:17:19;40.13;;;18.27;;
22250;SDS011;59348;52.158;5.588;2023-02-10T14:19:50;41.85;;;20.40;;
22250;SDS011;59348;52.158;5.588;2023-02-10T14:22:23;37.22;;;21.42;;
22250;SDS011;59348;52.158;5.588;2023-02-10T14:24:51;40.80;;;20.40;;
22250;SDS011;59348;52.158;5.588;2023-02-10T14:27:20;42.50;;;22.30;;
22250;SDS011;59348;52.158;5.588;2023-02-10T14:29:49;44.10;;;23.15;;
22250;SDS011;59348;52.158;5.588;2023-02-10T14:32:17;48.40;;;25.50;;
22250;SDS011;59348;52.158;5.588;2023-02-10T14:34:52;44.05;;;25.92;;
22250;SDS011;59348;52.158;5.588;2023-02-10T14:37:22;51.17;;;26.00;;
22250;SDS011;59348;52.158;5.588;2023-02-10T14:39:51;51.42;;;26.25;;
22250;SDS011;59348;52.158;5.588;2023-02-10T14:42:22;51.17;;;26.67;;
22250;SDS011;59348;52.158;5.588;2023-02-10T14:44:50;47.17;;;25.73;;
22250;SDS011;59348;52.158;5.588;2023-02-10T14:47:19;53.00;;;26.85;;
22250;SDS011;59348;52.158;5.588;2023-02-10T14:49:50;50.70;;;26.27;;
22250;SDS011;59348;52.158;5.588;2023-02-10T14:52:21;49.40;;;27.80;;
22250;SDS011;59348;52.158;5.588;2023-02-10T14:54:48;58.30;;;30.77;;
22250;SDS011;59348;52.158;5.588;2023-02-10T14:57:20;55.60;;;31.88;;
22250;SDS011;59348;52.158;5.588;2023-02-10T14:59:51;55.15;;;30.50;;